Columbus Air Force Base
KCBM : now visible

Airfield :











YOU CAN JOIN US ON...

 
LOGIN :

Register | Disclaimer

   EN    FR    IT 

 









Legend :    VFR   Marginal VFR   IFR   Intensive IFR   Very Intensive IFR
Visi :
Ceiling :
>= 8 km
>= 3000ft
5 to 8 km
1000 to 3000 ft
1500m to 5 km
500 to 1000 ft
800 to 1500m
200 to 500 ft
< 800m
< 200 ft
Symbols :   Thunderstorms  Fog  Heavy snow  Heavy precipitations  Wind > 20 kt







- Airport Elevation : 219 ft


KCBM - Columbus Air Force Base

CURRENT METAR :
  • 241856Z AUTO 22005KT 10SM CLR 32/21 A3013 RMK AO2 SLP204 T03230208 $

EXPIRED METARs :
  • 241756Z AUTO 23007KT 10SM CLR 32/21 A3016 RMK AO2 SLPNO T03160205 10318 20227 58007 $
  • 241656Z AUTO 24004KT 10SM CLR 31/20 A3018 RMK AO2 SLPNO T03110204 $

TAF AMD TAF KCBM
Valid from the 23 at 22:00 until the 24 at 23:00 UTC


232230Z 2322/2423 19009KT 9999 FEW060 QNH3008INS
BECMG 2323/2324 16006KT 9999 SKC QNH3006INS
BECMG 2408/2409 VRB06KT 9999 BKN040 QNH3004INS TX32/2322Z TN20/2411Z LAST NO AMDS AFT 2323 NEXT 2809
KZME FIR / North America



MET'MAP, your aeronautical weather chart ! - Copyright ORBIFLY December 2007 - Disclaimer

ORBIFLY MET'MAP TEAM :

Programming & Development : Alexandra Zaïnal
Concept & Development : Baudouin d'Aumeries
Co-Development & Prog : Marc-Olivier Méhu
Technical & hardware support : Manuel Goepfert

Contact : metmap@orbifly.com




SOURCES & CREDITS :

   NOAA       Earth
Advisory